createdAt,value
2023-01-02T00:00:20.934Z,9.443765
2023-01-02T00:01:18.788Z,9.443894
2023-01-02T00:02:17.331Z,9.443746
2023-01-02T00:03:17.418Z,9.443673
2023-01-02T00:04:17.246Z,9.443683
2023-01-02T00:05:17.239Z,9.443697
2023-01-02T00:06:17.256Z,9.443755
2023-01-02T00:07:17.227Z,9.443725
2023-01-02T00:08:17.217Z,9.443739
2023-01-02T00:09:17.227Z,9.443683
2023-01-02T00:10:17.205Z,9.443715
2023-01-02T00:11:17.210Z,9.443735
2023-01-02T00:12:17.198Z,9.443832
2023-01-02T00:13:17.195Z,9.443792
2023-01-02T00:14:17.187Z,9.443707
2023-01-02T00:15:17.183Z,9.443862
2023-01-02T00:16:17.269Z,9.443864
2023-01-02T00:17:17.183Z,9.443973
2023-01-02T00:18:17.166Z,9.443815
2023-01-02T00:19:17.152Z,9.443793
2023-01-02T00:20:17.153Z,9.443735
2023-01-02T00:21:17.136Z,9.443806
2023-01-02T00:22:17.143Z,9.443740
2023-01-02T00:23:17.153Z,9.443661
2023-01-02T00:24:17.131Z,9.443771
2023-01-02T00:25:17.203Z,9.443829
2023-01-02T00:26:17.100Z,9.443764
2023-01-02T00:27:17.088Z,9.443732
2023-01-02T00:28:17.089Z,9.443752
2023-01-02T00:29:17.093Z,9.443712
2023-01-02T00:30:17.076Z,9.443771
2023-01-02T00:31:17.080Z,9.443718
2023-01-02T00:32:17.080Z,9.443698
2023-01-02T00:33:17.058Z,9.443613
2023-01-02T00:34:17.071Z,9.443649
2023-01-02T00:35:17.069Z,9.443656
2023-01-02T00:36:17.046Z,9.443628
2023-01-02T00:37:17.025Z,9.443498
2023-01-02T00:38:17.040Z,9.443689
2023-01-02T00:39:17.040Z,9.443755
2023-01-02T00:40:17.031Z,9.443647
2023-01-02T00:41:17.017Z,9.443709
2023-01-02T00:42:17.026Z,9.443731
2023-01-02T00:43:17.003Z,9.443728
2023-01-02T00:44:16.992Z,9.443707
2023-01-02T00:45:16.999Z,9.443678
2023-01-02T00:46:17.024Z,9.443658
2023-01-02T00:47:16.980Z,9.443683
2023-01-02T00:48:16.975Z,9.443679
2023-01-02T00:49:16.964Z,9.443691
2023-01-02T00:50:16.975Z,9.443666
2023-01-02T00:51:16.962Z,9.443635
2023-01-02T00:52:16.944Z,9.443645
2023-01-02T00:53:16.964Z,9.443663
2023-01-02T00:54:16.936Z,9.443658
2023-01-02T00:55:16.930Z,9.443740
2023-01-02T00:56:49.887Z,9.443728
2023-01-02T00:57:16.920Z,9.443783
2023-01-02T00:58:16.891Z,9.443760
2023-01-02T00:59:17.885Z,9.443736
2023-01-02T01:00:23.675Z,9.443728
2023-01-02T01:01:19.002Z,9.443747
2023-01-02T01:02:16.982Z,9.443756
2023-01-02T01:03:16.871Z,9.443693
2023-01-02T01:04:16.859Z,9.443705
2023-01-02T01:05:16.884Z,9.443666
2023-01-02T01:06:16.845Z,9.443732
2023-01-02T01:07:16.864Z,9.443707
2023-01-02T01:08:16.860Z,9.443678
2023-01-02T01:09:16.832Z,9.443682
2023-01-02T01:10:16.840Z,9.443717
2023-01-02T01:11:16.811Z,9.443767
2023-01-02T01:12:16.825Z,9.443750
2023-01-02T01:13:16.800Z,9.443743
2023-01-02T01:14:16.813Z,9.443733
2023-01-02T01:15:16.817Z,9.443748
2023-01-02T01:16:16.849Z,9.443754
2023-01-02T01:17:16.814Z,9.443757
2023-01-02T01:18:16.775Z,9.443732
2023-01-02T01:19:16.764Z,9.443807
2023-01-02T01:20:16.783Z,9.443791
2023-01-02T01:21:16.789Z,9.443746
2023-01-02T01:22:16.737Z,9.443732
2023-01-02T01:23:16.860Z,9.443725
2023-01-02T01:24:16.753Z,9.443752
2023-01-02T01:25:16.731Z,9.443815
2023-01-02T01:26:17.314Z,9.443769
2023-01-02T01:27:16.720Z,9.443731
2023-01-02T01:28:16.715Z,9.443780
2023-01-02T01:29:16.726Z,9.443762
2023-01-02T01:30:16.695Z,9.443758
2023-01-02T01:31:17.766Z,9.443755
2023-01-02T01:32:16.693Z,9.443767
2023-01-02T01:33:16.656Z,9.443771
2023-01-02T01:34:17.370Z,9.443778
2023-01-02T01:35:16.659Z,9.443789
2023-01-02T01:36:16.714Z,9.443781
2023-01-02T01:37:16.634Z,9.443736
2023-01-02T01:38:16.637Z,9.443796
2023-01-02T01:39:16.649Z,9.443707
2023-01-02T01:40:16.642Z,9.443695
2023-01-02T01:41:16.619Z,9.443737
2023-01-02T01:42:16.636Z,9.443743
2023-01-02T01:43:16.610Z,9.443785
2023-01-02T01:44:16.697Z,9.443760
2023-01-02T01:45:16.607Z,9.443750
2023-01-02T01:46:16.633Z,9.443705
2023-01-02T01:47:16.571Z,9.443691
2023-01-02T01:48:16.567Z,9.443694
2023-01-02T01:49:16.579Z,9.443666
2023-01-02T01:50:16.572Z,9.443711
2023-01-02T01:51:16.588Z,9.443683
2023-01-02T01:52:16.545Z,9.443739
2023-01-02T01:53:16.544Z,9.443770
2023-01-02T01:54:16.524Z,9.443778
2023-01-02T01:55:16.557Z,9.443682
2023-01-02T01:56:16.536Z,9.443583
2023-01-02T01:57:16.504Z,9.443692
2023-01-02T01:58:16.542Z,9.443711
2023-01-02T01:59:16.495Z,9.443687
2023-01-02T02:00:16.519Z,9.443719
2023-01-02T02:01:16.644Z,9.443719
2023-01-02T02:02:16.585Z,9.443668
2023-01-02T02:03:16.593Z,9.443636
2023-01-02T02:04:16.470Z,9.443747
2023-01-02T02:05:16.473Z,9.443794
2023-01-02T02:06:16.458Z,9.443856
2023-01-02T02:07:16.445Z,9.443769
2023-01-02T02:08:16.464Z,9.443779
2023-01-02T02:09:16.439Z,9.443870
2023-01-02T02:10:16.430Z,9.443726
2023-01-02T02:11:16.437Z,9.443549
2023-01-02T02:12:16.403Z,9.443604
2023-01-02T02:13:16.426Z,9.443696
2023-01-02T02:14:17.338Z,9.443734
2023-01-02T02:15:16.393Z,9.443710
2023-01-02T02:16:16.655Z,9.443694
2023-01-02T02:17:16.392Z,9.443703
2023-01-02T02:18:16.381Z,9.443664
2023-01-02T02:19:16.384Z,9.443656
2023-01-02T02:20:16.383Z,9.443671
2023-01-02T02:21:16.362Z,9.443677
2023-01-02T02:22:16.358Z,9.443709
2023-01-02T02:23:16.353Z,9.443773
2023-01-02T02:24:16.394Z,9.443693
2023-01-02T02:25:16.324Z,9.443667
2023-01-02T02:26:16.306Z,9.443706
2023-01-02T02:27:16.316Z,9.443773
2023-01-02T02:28:16.333Z,9.443750
2023-01-02T02:29:16.302Z,9.443736
2023-01-02T02:30:16.291Z,9.443739
2023-01-02T02:31:16.346Z,9.443728
2023-01-02T02:32:16.279Z,9.443700
2023-01-02T02:33:16.277Z,9.443707
2023-01-02T02:34:16.271Z,9.443731
2023-01-02T02:35:16.257Z,9.443738
2023-01-02T02:36:16.257Z,9.443691
2023-01-02T02:37:16.259Z,9.443693
2023-01-02T02:38:16.263Z,9.443687
2023-01-02T02:39:16.228Z,9.443668
2023-01-02T02:40:16.230Z,9.443698
2023-01-02T02:41:16.273Z,9.443696
2023-01-02T02:42:16.253Z,9.443689
2023-01-02T02:43:16.304Z,9.443703
2023-01-02T02:44:16.199Z,9.443669
2023-01-02T02:45:16.199Z,9.443667
2023-01-02T02:46:16.243Z,9.443666
2023-01-02T02:47:16.197Z,9.443677
2023-01-02T02:48:16.195Z,9.443670
2023-01-02T02:49:16.180Z,9.443646
2023-01-02T02:50:16.150Z,9.443667
2023-01-02T02:51:16.165Z,9.443676
2023-01-02T02:52:16.162Z,9.443658
2023-01-02T02:53:16.165Z,9.443654
2023-01-02T02:54:16.136Z,9.443706
2023-01-02T02:55:16.131Z,9.443668
2023-01-02T02:56:16.133Z,9.443640
2023-01-02T02:57:16.113Z,9.443644
2023-01-02T02:58:16.118Z,9.443663
2023-01-02T02:59:16.133Z,9.443681
2023-01-02T03:00:16.085Z,9.443695
2023-01-02T03:01:16.245Z,9.443699
2023-01-02T03:02:16.335Z,9.443663
2023-01-02T03:03:16.091Z,9.443682
2023-01-02T03:04:16.086Z,9.443685
2023-01-02T03:05:16.053Z,9.443645
2023-01-02T03:06:16.040Z,9.443652
2023-01-02T03:07:16.054Z,9.443749
2023-01-02T03:08:16.067Z,9.443706
2023-01-02T03:09:16.055Z,9.443668
2023-01-02T03:10:16.036Z,9.443592
2023-01-02T03:11:16.079Z,9.443677
2023-01-02T03:12:16.019Z,9.443688
2023-01-02T03:13:16.010Z,9.443624
2023-01-02T03:14:16.027Z,9.443650
2023-01-02T03:15:16.001Z,9.443705
2023-01-02T03:16:16.045Z,9.443642
2023-01-02T03:17:15.999Z,9.443648
2023-01-02T03:18:15.991Z,9.443681
2023-01-02T03:19:16.019Z,9.443663
2023-01-02T03:20:16.066Z,9.443674
2023-01-02T03:21:15.971Z,9.443723
2023-01-02T03:22:15.973Z,9.443630
2023-01-02T03:23:15.955Z,9.443667
2023-01-02T03:24:15.954Z,9.443638
2023-01-02T03:25:15.942Z,9.443685
2023-01-02T03:26:15.937Z,9.443722
2023-01-02T03:27:15.926Z,9.443722
2023-01-02T03:28:15.930Z,9.443769
2023-01-02T03:29:15.927Z,9.443716
2023-01-02T03:30:15.957Z,9.443669
2023-01-02T03:31:15.926Z,9.443708
2023-01-02T03:32:15.899Z,9.443740
2023-01-02T03:33:15.915Z,9.443701
2023-01-02T03:34:15.904Z,9.443675
2023-01-02T03:35:15.881Z,9.443700
2023-01-02T03:36:15.867Z,9.443723
2023-01-02T03:37:15.915Z,9.443778
2023-01-02T03:38:15.868Z,9.443709
2023-01-02T03:39:15.845Z,9.443682
2023-01-02T03:40:15.873Z,9.443680
2023-01-02T03:41:15.833Z,9.443665
2023-01-02T03:42:15.870Z,9.443611
2023-01-02T03:43:15.832Z,9.443574
2023-01-02T03:44:15.845Z,9.443618
2023-01-02T03:45:15.837Z,9.443640
2023-01-02T03:46:15.902Z,9.443694
2023-01-02T03:47:15.801Z,9.443745
2023-01-02T03:48:15.801Z,9.443731
2023-01-02T03:49:15.805Z,9.443729
2023-01-02T03:50:15.819Z,9.443709
2023-01-02T03:51:15.799Z,9.443673
2023-01-02T03:52:20.992Z,9.443706
2023-01-02T03:53:17.786Z,9.443708
2023-01-02T03:54:15.806Z,9.443713
2023-01-02T03:55:15.816Z,9.443732
2023-01-02T03:56:15.748Z,9.443663
2023-01-02T03:57:15.762Z,9.443629
2023-01-02T03:58:15.784Z,9.443670
2023-01-02T03:59:15.754Z,9.443659
2023-01-02T04:00:15.735Z,9.443711
2023-01-02T04:01:15.854Z,9.443729
2023-01-02T04:02:15.972Z,9.443755
2023-01-02T04:03:15.798Z,9.443651
2023-01-02T04:04:15.725Z,9.443705
2023-01-02T04:05:15.712Z,9.443671
2023-01-02T04:06:15.709Z,9.443808
2023-01-02T04:07:15.679Z,9.443759
2023-01-02T04:08:15.705Z,9.443736
2023-01-02T04:09:15.697Z,9.443729
2023-01-02T04:10:15.673Z,9.443727
2023-01-02T04:11:15.677Z,9.443724
2023-01-02T04:12:15.674Z,9.443707
2023-01-02T04:13:15.642Z,9.443696
2023-01-02T04:14:15.657Z,9.443760
2023-01-02T04:15:15.646Z,9.443741
2023-01-02T04:16:15.665Z,9.443663
2023-01-02T04:17:15.656Z,9.443642
2023-01-02T04:18:15.618Z,9.443650
2023-01-02T04:19:16.299Z,9.443640
2023-01-02T04:20:15.622Z,9.443566
2023-01-02T04:21:15.614Z,9.443726
2023-01-02T04:22:15.605Z,9.443741
2023-01-02T04:23:15.592Z,9.443780
2023-01-02T04:24:15.615Z,9.443740
2023-01-02T04:25:15.609Z,9.443703
2023-01-02T04:26:15.586Z,9.443656
2023-01-02T04:27:15.568Z,9.443696
2023-01-02T04:28:15.560Z,9.443807
2023-01-02T04:29:15.548Z,9.443645
2023-01-02T04:30:15.544Z,9.443737
2023-01-02T04:31:15.621Z,9.443787
2023-01-02T04:32:15.547Z,9.443659
2023-01-02T04:33:15.530Z,9.443573
2023-01-02T04:34:15.552Z,9.443771
2023-01-02T04:35:15.522Z,9.443705
2023-01-02T04:36:15.511Z,9.443848
2023-01-02T04:37:15.503Z,9.443732
2023-01-02T04:38:15.545Z,9.443742
2023-01-02T04:39:15.502Z,9.443705
2023-01-02T04:40:15.529Z,9.443696
2023-01-02T04:41:15.499Z,9.443748
2023-01-02T04:42:15.483Z,9.443668
2023-01-02T04:43:15.515Z,9.443654
2023-01-02T04:44:15.485Z,9.443700
2023-01-02T04:45:15.499Z,9.443691
2023-01-02T04:46:15.509Z,9.443731
2023-01-02T04:47:21.522Z,9.443741
2023-01-02T04:48:17.462Z,9.443657
2023-01-02T04:49:15.441Z,9.443789
2023-01-02T04:50:15.450Z,9.443810
2023-01-02T04:51:15.428Z,9.443650
2023-01-02T04:52:15.436Z,9.443527
2023-01-02T04:53:15.446Z,9.443578
2023-01-02T04:54:15.401Z,9.443678
2023-01-02T04:55:15.398Z,9.443721
2023-01-02T04:56:15.414Z,9.443788
2023-01-02T04:57:15.388Z,9.443769
2023-01-02T04:58:15.419Z,9.443640
2023-01-02T04:59:15.396Z,9.443634
2023-01-02T05:00:15.365Z,9.443737
2023-01-02T05:01:15.515Z,9.443777
2023-01-02T05:02:15.469Z,9.443787
2023-01-02T05:03:15.428Z,9.443613
2023-01-02T05:04:15.365Z,9.443725
2023-01-02T05:05:15.332Z,9.443734
2023-01-02T05:06:15.336Z,9.443748
2023-01-02T05:07:15.339Z,9.443732
2023-01-02T05:08:16.645Z,9.443720
2023-01-02T05:09:16.327Z,9.443668
2023-01-02T05:10:15.312Z,9.443680
2023-01-02T05:11:15.333Z,9.443702
2023-01-02T05:12:15.313Z,9.443712
2023-01-02T05:13:15.309Z,9.443735
2023-01-02T05:14:15.308Z,9.443707
2023-01-02T05:15:15.294Z,9.443714
2023-01-02T05:16:15.353Z,9.443679
2023-01-02T05:17:15.283Z,9.443740
2023-01-02T05:18:15.263Z,9.443727
2023-01-02T05:19:15.268Z,9.443733
2023-01-02T05:20:15.271Z,9.443775
2023-01-02T05:21:15.240Z,9.443732
2023-01-02T05:22:15.281Z,9.443767
2023-01-02T05:23:15.229Z,9.443694
2023-01-02T05:24:16.256Z,9.443730
2023-01-02T05:25:15.233Z,9.443701
2023-01-02T05:26:15.203Z,9.443734
2023-01-02T05:27:15.223Z,9.443715
2023-01-02T05:28:15.212Z,9.443681
2023-01-02T05:29:15.196Z,9.443728
2023-01-02T05:30:15.216Z,9.443626
2023-01-02T05:31:15.229Z,9.443708
2023-01-02T05:32:15.172Z,9.443699
2023-01-02T05:33:15.196Z,9.443648
2023-01-02T05:34:15.179Z,9.443685
2023-01-02T05:35:15.169Z,9.443717
2023-01-02T05:36:15.143Z,9.443697
2023-01-02T05:37:15.152Z,9.443703
2023-01-02T05:38:15.138Z,9.443703
2023-01-02T05:39:15.166Z,9.443712
2023-01-02T05:40:15.159Z,9.443744
2023-01-02T05:41:15.129Z,9.443902
2023-01-02T05:42:15.120Z,9.443755
2023-01-02T05:43:15.115Z,9.443711
2023-01-02T05:44:15.143Z,9.443771
2023-01-02T05:45:15.105Z,9.443731
2023-01-02T05:46:15.103Z,9.443712
2023-01-02T05:47:16.636Z,9.443745
2023-01-02T05:48:16.078Z,9.443745
2023-01-02T05:49:15.085Z,9.443841
2023-01-02T05:50:15.088Z,9.443837
2023-01-02T05:51:15.074Z,9.443843
2023-01-02T05:52:15.072Z,9.443781
2023-01-02T05:53:15.822Z,9.443695
2023-01-02T05:54:15.093Z,9.443717
2023-01-02T05:55:15.035Z,9.443666
2023-01-02T05:56:15.038Z,9.443688
2023-01-02T05:57:15.026Z,9.443699
2023-01-02T05:58:15.021Z,9.443714
2023-01-02T05:59:15.045Z,9.443749
2023-01-02T06:00:15.018Z,9.443718
2023-01-02T06:01:15.120Z,9.443673
2023-01-02T06:02:15.109Z,9.443656
2023-01-02T06:03:15.087Z,9.443667
2023-01-02T06:04:19.583Z,9.443692
2023-01-02T06:05:17.021Z,9.443705
2023-01-02T06:06:14.983Z,9.443640
2023-01-02T06:07:14.996Z,9.443630
2023-01-02T06:08:14.953Z,9.443701
2023-01-02T06:09:14.971Z,9.443647
2023-01-02T06:10:14.944Z,9.443679
2023-01-02T06:11:15.013Z,9.443696
2023-01-02T06:12:15.946Z,9.443700
2023-01-02T06:13:14.921Z,9.443741
2023-01-02T06:14:14.926Z,9.443672
2023-01-02T06:15:14.942Z,9.443628
2023-01-02T06:16:14.978Z,9.443698
2023-01-02T06:17:14.912Z,9.443603
2023-01-02T06:18:14.926Z,9.443707
2023-01-02T06:19:14.912Z,9.443800
2023-01-02T06:20:14.879Z,9.443861
2023-01-02T06:21:14.900Z,9.443877
2023-01-02T06:22:15.015Z,9.443800
2023-01-02T06:23:15.817Z,9.443874
2023-01-02T06:24:14.869Z,9.443854
2023-01-02T06:25:14.868Z,9.443767
2023-01-02T06:26:14.893Z,9.443751
2023-01-02T06:27:14.850Z,9.443734
2023-01-02T06:28:14.846Z,9.443983
2023-01-02T06:29:14.840Z,9.443836
2023-01-02T06:30:14.833Z,9.443866
2023-01-02T06:31:14.880Z,9.443754
2023-01-02T06:32:14.941Z,9.443769
2023-01-02T06:33:14.837Z,9.443731
2023-01-02T06:34:14.804Z,9.443702
2023-01-02T06:35:14.831Z,9.443752
2023-01-02T06:36:14.804Z,9.443686
2023-01-02T06:37:14.786Z,9.443616
2023-01-02T06:38:14.780Z,9.443624
2023-01-02T06:39:14.776Z,9.443609
2023-01-02T06:40:14.790Z,9.443632
2023-01-02T06:41:15.320Z,9.443639
2023-01-02T06:42:14.772Z,9.443641
2023-01-02T06:43:14.765Z,9.443708
2023-01-02T06:44:14.747Z,9.443744
2023-01-02T06:45:14.826Z,9.443781
2023-01-02T06:46:14.808Z,9.443755
2023-01-02T06:47:14.790Z,9.443739
2023-01-02T06:48:14.722Z,9.443716
2023-01-02T06:49:14.753Z,9.443724
2023-01-02T06:50:14.722Z,9.443749
2023-01-02T06:51:14.711Z,9.443662
2023-01-02T06:52:14.777Z,9.443753
2023-01-02T06:53:14.681Z,9.443661
2023-01-02T06:54:14.688Z,9.443625
2023-01-02T06:55:14.733Z,9.443593
2023-01-02T06:56:14.660Z,9.443521
2023-01-02T06:57:14.704Z,9.443622
2023-01-02T06:58:19.254Z,9.443640
2023-01-02T06:59:48.374Z,9.443563
2023-01-02T07:00:14.647Z,9.442411
2023-01-02T07:01:14.721Z,9.442437
2023-01-02T07:02:14.700Z,9.442949
2023-01-02T07:03:14.639Z,9.443591
2023-01-02T07:04:14.626Z,9.443613
2023-01-02T07:05:19.720Z,9.443686
2023-01-02T07:06:16.617Z,9.443660
2023-01-02T07:07:14.626Z,9.443696
2023-01-02T07:08:14.608Z,9.443707
2023-01-02T07:09:14.612Z,9.443742
2023-01-02T07:10:14.630Z,9.443668
2023-01-02T07:11:14.598Z,9.443620
2023-01-02T07:12:14.575Z,9.443646
2023-01-02T07:13:14.570Z,9.443637
2023-01-02T07:14:14.595Z,9.443645
2023-01-02T07:15:14.563Z,9.443727
2023-01-02T07:16:14.610Z,9.443604
2023-01-02T07:17:14.588Z,9.443547
2023-01-02T07:18:14.543Z,9.443602
2023-01-02T07:19:14.545Z,9.443707
2023-01-02T07:20:14.529Z,9.443523
2023-01-02T07:21:14.520Z,9.443505
2023-01-02T07:22:14.524Z,9.443621
2023-01-02T07:23:14.608Z,9.443695
2023-01-02T07:24:14.548Z,9.443790
2023-01-02T07:25:14.532Z,9.443837
2023-01-02T07:26:14.527Z,9.443720
2023-01-02T07:27:14.480Z,9.443657
2023-01-02T07:28:14.491Z,9.443627
2023-01-02T07:29:14.511Z,9.443725
2023-01-02T07:30:14.483Z,9.443700
2023-01-02T07:31:14.494Z,9.443682
2023-01-02T07:32:14.516Z,9.443681
2023-01-02T07:33:14.489Z,9.443726
2023-01-02T07:34:14.449Z,9.443685
2023-01-02T07:35:14.434Z,9.443700
2023-01-02T07:36:15.549Z,9.443712
2023-01-02T07:37:14.445Z,9.443694
2023-01-02T07:38:14.420Z,9.443724
2023-01-02T07:39:14.439Z,9.443726
2023-01-02T07:40:14.423Z,9.443737
2023-01-02T07:41:14.420Z,9.443739
2023-01-02T07:42:14.407Z,9.443672
2023-01-02T07:43:14.469Z,9.443679
2023-01-02T07:44:14.420Z,9.443635
2023-01-02T07:45:14.549Z,9.443657
2023-01-02T07:46:14.524Z,9.443686
2023-01-02T07:47:14.416Z,9.443703
2023-01-02T07:48:14.391Z,9.443763
2023-01-02T07:49:14.358Z,9.443807
2023-01-02T07:50:14.359Z,9.443845
2023-01-02T07:51:14.334Z,9.443829
2023-01-02T07:52:14.341Z,9.443849
2023-01-02T07:53:14.338Z,9.443787
2023-01-02T07:54:14.338Z,9.443718
2023-01-02T07:55:14.314Z,9.443729
2023-01-02T07:56:14.317Z,9.443780
2023-01-02T07:57:14.312Z,9.443669
2023-01-02T07:58:14.327Z,9.443697
2023-01-02T07:59:14.311Z,9.443736
2023-01-02T08:00:14.295Z,9.443746
2023-01-02T08:01:14.464Z,9.443853
2023-01-02T08:02:14.431Z,9.443859
2023-01-02T08:03:14.296Z,9.443832
2023-01-02T08:04:14.348Z,9.443742
2023-01-02T08:05:14.265Z,9.443747
2023-01-02T08:06:14.270Z,9.443772
2023-01-02T08:07:14.298Z,9.443792
2023-01-02T08:08:14.352Z,9.443850
2023-01-02T08:09:14.289Z,9.443744
2023-01-02T08:10:14.273Z,9.443713
2023-01-02T08:11:14.239Z,9.443764
2023-01-02T08:12:14.236Z,9.443805
2023-01-02T08:13:14.256Z,9.443852
2023-01-02T08:14:18.522Z,9.443892
2023-01-02T08:15:16.212Z,9.443907
2023-01-02T08:16:14.376Z,9.443829
2023-01-02T08:17:14.214Z,9.443811
2023-01-02T08:18:14.190Z,9.443913
2023-01-02T08:19:14.171Z,9.443740
2023-01-02T08:20:14.200Z,9.443771
2023-01-02T08:21:14.301Z,9.443810
2023-01-02T08:22:14.166Z,9.443869
2023-01-02T08:23:14.172Z,9.443867
2023-01-02T08:32:38.312Z,9.443598
2023-01-02T08:33:38.345Z,9.443641
2023-01-02T08:34:37.307Z,9.443688
2023-01-02T08:35:38.883Z,9.443725
2023-01-02T08:36:38.284Z,9.443516
2023-01-02T08:37:37.266Z,9.443659
2023-01-02T08:38:37.309Z,9.443475
2023-01-02T08:39:37.394Z,9.443548
2023-01-02T08:40:37.268Z,9.443727
2023-01-02T08:41:38.290Z,9.443681
2023-01-02T08:42:37.271Z,9.443645
2023-01-02T08:43:37.262Z,9.443619
2023-01-02T08:44:37.245Z,9.443742
2023-01-02T08:45:37.241Z,9.443699
2023-01-02T08:46:42.525Z,9.443739
2023-01-02T08:47:39.314Z,9.443726
2023-01-02T08:48:37.213Z,9.443724
2023-01-02T08:49:37.230Z,9.443725
2023-01-02T08:50:37.220Z,9.443672
2023-01-02T08:51:37.220Z,9.443690
2023-01-02T08:52:37.199Z,9.443691
2023-01-02T08:53:37.214Z,9.443734
2023-01-02T08:54:37.192Z,9.443676
2023-01-02T08:55:37.628Z,9.443667
2023-01-02T08:56:37.171Z,9.443664
2023-01-02T08:57:37.204Z,9.443693
2023-01-02T08:58:37.152Z,9.443746
2023-01-02T08:59:37.173Z,9.443719
2023-01-02T09:00:37.155Z,9.443744
2023-01-02T09:01:37.299Z,9.443715
2023-01-02T09:02:37.376Z,9.443691
2023-01-02T09:03:37.203Z,9.443747
2023-01-02T09:04:37.111Z,9.443712
2023-01-02T09:05:37.120Z,9.443703
2023-01-02T09:06:37.126Z,9.443769
2023-01-02T09:07:37.097Z,9.443731
2023-01-02T09:08:37.094Z,9.443736
2023-01-02T09:09:37.112Z,9.443716
2023-01-02T09:10:37.107Z,9.443790
2023-01-02T09:11:37.086Z,9.443858
2023-01-02T09:12:37.116Z,9.443719
2023-01-02T09:13:37.053Z,9.443712
2023-01-02T09:14:38.043Z,9.443624
2023-01-02T09:15:37.168Z,9.443567
2023-01-02T09:16:37.104Z,9.443588
2023-01-02T09:17:37.054Z,9.443550
2023-01-02T09:18:37.061Z,9.443478
2023-01-02T09:19:37.049Z,9.443617
2023-01-02T09:20:37.040Z,9.443768
2023-01-02T09:21:37.029Z,9.443750
2023-01-02T09:22:37.016Z,9.443774
2023-01-02T09:23:37.003Z,9.443766
2023-01-02T09:24:37.055Z,9.443691
2023-01-02T09:25:37.006Z,9.443657
2023-01-02T09:26:37.022Z,9.443515
2023-01-02T09:27:36.988Z,9.443603
2023-01-02T09:28:36.971Z,9.443638
2023-01-02T09:29:36.974Z,9.443780
2023-01-02T09:30:36.972Z,9.443822
2023-01-02T09:31:37.021Z,9.443707
2023-01-02T09:32:36.968Z,9.443627
2023-01-02T09:33:36.943Z,9.443660
2023-01-02T09:34:37.543Z,9.443672
2023-01-02T09:35:36.943Z,9.443685
2023-01-02T09:36:36.951Z,9.443787
2023-01-02T09:37:36.931Z,9.443687
2023-01-02T09:38:36.934Z,9.443654
2023-01-02T09:39:36.935Z,9.443739
2023-01-02T09:40:36.915Z,9.443708
2023-01-02T09:41:36.904Z,9.443684
2023-01-02T09:42:36.917Z,9.443684
2023-01-02T09:43:36.884Z,9.443666
2023-01-02T09:44:36.915Z,9.443664
2023-01-02T09:45:36.873Z,9.443710
2023-01-02T09:46:36.951Z,9.443723
2023-01-02T09:47:36.865Z,9.443679
2023-01-02T09:48:36.871Z,9.443661
2023-01-02T09:49:36.870Z,9.443684
2023-01-02T09:50:36.850Z,9.443684
2023-01-02T09:51:36.866Z,9.443698
2023-01-02T09:52:36.849Z,9.443667
2023-01-02T09:53:36.822Z,9.443702
2023-01-02T09:54:36.877Z,9.443705
2023-01-02T09:55:36.832Z,9.443720
2023-01-02T09:56:36.819Z,9.443718
2023-01-02T09:57:36.811Z,9.443739
2023-01-02T09:58:36.815Z,9.443738
2023-01-02T09:59:36.812Z,9.443735
2023-01-02T10:00:36.797Z,9.443732
2023-01-02T10:01:36.864Z,9.443737
2023-01-02T10:02:36.872Z,9.443804
2023-01-02T10:03:36.929Z,9.443762
2023-01-02T10:04:36.867Z,9.443801
2023-01-02T10:05:36.949Z,9.443756
2023-01-02T10:06:36.782Z,9.443747
2023-01-02T10:07:36.752Z,9.443781
2023-01-02T10:08:36.821Z,9.443772
2023-01-02T10:09:36.739Z,9.443795
2023-01-02T10:10:36.777Z,9.443797
2023-01-02T10:11:36.730Z,9.443824
2023-01-02T10:12:36.747Z,9.443802
2023-01-02T10:14:16.741Z,9.443810
2023-01-02T10:14:44.293Z,9.443740
2023-01-02T10:15:38.827Z,9.443734
2023-01-02T10:16:36.684Z,9.443728
2023-01-02T10:17:36.688Z,9.443659
2023-01-02T10:18:36.681Z,9.443630
2023-01-02T10:19:36.732Z,9.443688
2023-01-02T10:20:36.683Z,9.443747
2023-01-02T10:21:36.667Z,9.443644
2023-01-02T10:22:37.891Z,9.443527
2023-01-02T10:23:36.669Z,9.443517
2023-01-02T10:24:36.680Z,9.443768
2023-01-02T10:25:36.634Z,9.443812
2023-01-02T10:26:36.667Z,9.443705
2023-01-02T10:27:36.619Z,9.443783
2023-01-02T10:29:08.594Z,9.443707
2023-01-02T10:29:36.624Z,9.443745
2023-01-02T10:30:36.650Z,9.443691
2023-01-02T10:31:36.694Z,9.443672
2023-01-02T10:32:36.596Z,9.443685
2023-01-02T10:33:36.596Z,9.443613
2023-01-02T10:34:36.581Z,9.443596
2023-01-02T10:35:36.596Z,9.443666
2023-01-02T10:36:36.587Z,9.443706
2023-01-02T10:37:36.551Z,9.443760
2023-01-02T10:38:37.564Z,9.443763
2023-01-02T10:39:36.698Z,9.443764
2023-01-02T10:40:36.556Z,9.443776
2023-01-02T10:41:36.571Z,9.443772
2023-01-02T10:42:36.535Z,9.443765
2023-01-02T10:43:36.559Z,9.443736
2023-01-02T10:44:36.540Z,9.443777
2023-01-02T10:45:36.533Z,9.443756
2023-01-02T10:46:36.636Z,9.443726
2023-01-02T10:47:36.532Z,9.443768
2023-01-02T10:48:36.649Z,9.443754
2023-01-02T10:49:37.170Z,9.443747
2023-01-02T10:50:36.496Z,9.443739
2023-01-02T10:51:36.494Z,9.443755
2023-01-02T10:52:36.488Z,9.443804
2023-01-02T10:53:36.467Z,9.443857
2023-01-02T10:54:36.480Z,9.443794
2023-01-02T10:55:37.172Z,9.443760
2023-01-02T10:56:37.457Z,9.443701
2023-01-02T10:57:36.456Z,9.443718
2023-01-02T10:58:36.447Z,9.443750
2023-01-02T10:59:36.450Z,9.443803
2023-01-02T11:00:36.517Z,9.443798
2023-01-02T11:01:36.599Z,9.443722
2023-01-02T11:02:36.556Z,9.443756
2023-01-02T11:03:36.432Z,9.443750
2023-01-02T11:04:37.414Z,9.443666
2023-01-02T11:05:36.406Z,9.443661
2023-01-02T11:06:39.704Z,9.443603
2023-01-02T11:07:37.381Z,9.443873
2023-01-02T11:08:36.389Z,9.443801
2023-01-02T11:09:36.377Z,9.443747
2023-01-02T11:10:36.414Z,9.443711
2023-01-02T11:11:36.392Z,9.443757
2023-01-02T11:12:36.385Z,9.443735
2023-01-02T11:13:36.368Z,9.443743
2023-01-02T11:14:36.387Z,9.443740
2023-01-02T11:15:36.357Z,9.443717
2023-01-02T11:16:36.408Z,9.443762
2023-01-02T11:17:36.397Z,9.443702
2023-01-02T11:18:36.386Z,9.443665
2023-01-02T11:19:36.309Z,9.443595
2023-01-02T11:20:36.395Z,9.443460
2023-01-02T11:21:36.320Z,9.443655
2023-01-02T11:22:36.313Z,9.443782
2023-01-02T11:23:36.301Z,9.443750
2023-01-02T11:24:36.322Z,9.443720
2023-01-02T11:25:36.315Z,9.443790
2023-01-02T11:26:36.314Z,9.443752
2023-01-02T11:27:36.316Z,9.443718
2023-01-02T11:28:36.299Z,9.443685
2023-01-02T11:29:36.365Z,9.443797
2023-01-02T11:30:36.308Z,9.443744
2023-01-02T11:31:36.281Z,9.443733
2023-01-02T11:32:36.255Z,9.443619
2023-01-02T11:33:36.262Z,9.443667
2023-01-02T11:34:36.253Z,9.443662
2023-01-02T11:35:36.224Z,9.443674
2023-01-02T11:36:36.220Z,9.443694
2023-01-02T11:37:36.205Z,9.443680
2023-01-02T11:38:36.209Z,9.443698
2023-01-02T11:39:36.306Z,9.443668
2023-01-02T11:40:36.235Z,9.443692
2023-01-02T11:41:36.357Z,9.443685
2023-01-02T11:42:36.191Z,9.443692
2023-01-02T11:43:36.159Z,9.443659
2023-01-02T11:44:36.166Z,9.443701
2023-01-02T11:45:36.245Z,9.443660
2023-01-02T11:46:36.189Z,9.443679
2023-01-02T11:47:36.166Z,9.443661
2023-01-02T11:48:36.161Z,9.443674
2023-01-02T11:49:36.173Z,9.443708
2023-01-02T11:50:36.200Z,9.443536
2023-01-02T11:51:36.140Z,9.443610
2023-01-02T11:52:36.117Z,9.443740